createdAt,value
2018-12-10T02:50:55.948Z,23.20
2018-12-10T02:53:53.341Z,23.20
2018-12-10T02:56:50.255Z,23.20
2018-12-10T02:59:45.855Z,23.20
2018-12-10T03:02:42.178Z,23.20
2018-12-10T03:05:38.649Z,23.20
2018-12-10T03:08:35.292Z,23.30
2018-12-10T03:11:31.724Z,23.30
2018-12-10T03:14:27.654Z,23.30
2018-12-10T03:17:23.976Z,23.30
2018-12-10T03:20:19.731Z,23.30
2018-12-10T03:23:16.146Z,23.40
2018-12-10T03:26:15.841Z,23.40
2018-12-10T03:29:12.603Z,23.40
2018-12-10T03:32:08.678Z,23.40
2018-12-10T03:35:11.903Z,23.40
2018-12-10T03:38:11.842Z,23.40
2018-12-10T03:41:08.663Z,23.50
2018-12-10T03:44:04.531Z,23.40
2018-12-10T03:47:00.783Z,23.40
2018-12-10T03:49:56.720Z,23.40
2018-12-10T03:52:52.649Z,23.40
2018-12-10T03:55:48.176Z,23.30
2018-12-10T03:58:43.810Z,23.30
2018-12-10T04:01:42.636Z,23.20
2018-12-10T04:04:36.908Z,23.20
2018-12-10T04:07:33.493Z,23.10
2018-12-10T04:10:29.467Z,23.10
2018-12-10T04:13:25.837Z,23.10
2018-12-10T04:16:25.933Z,23.00
2018-12-10T04:19:22.669Z,23.00
2018-12-10T04:22:18.893Z,23.00
2018-12-10T04:25:15.828Z,23.00
2018-12-10T04:28:12.746Z,23.00
2018-12-10T04:31:09.221Z,23.00
2018-12-10T04:34:04.927Z,23.00
2018-12-10T04:37:01.043Z,23.10
2018-12-10T04:39:57.302Z,23.10
2018-12-10T04:42:53.621Z,23.20
2018-12-10T04:45:50.460Z,23.20
2018-12-10T04:48:47.103Z,23.30
2018-12-10T04:51:44.074Z,23.40
2018-12-10T04:54:40.084Z,23.40
2018-12-10T04:57:36.303Z,23.50
2018-12-10T05:00:33.370Z,23.50
2018-12-10T05:03:29.903Z,23.60
2018-12-10T05:06:26.024Z,23.70
2018-12-10T05:09:22.117Z,23.70
2018-12-10T05:12:18.519Z,23.80
2018-12-10T05:15:16.165Z,23.90
2018-12-10T05:18:13.025Z,23.90
2018-12-10T05:21:17.641Z,23.90
2018-12-10T05:24:25.754Z,24.00
2018-12-10T05:27:42.997Z,24.10
2018-12-10T05:30:40.362Z,24.10
2018-12-10T05:33:43.049Z,24.20
2018-12-10T05:36:44.389Z,24.20
2018-12-10T05:39:49.827Z,24.30
2018-12-10T05:42:56.990Z,24.40
2018-12-10T05:46:28.264Z,24.40
2018-12-10T05:49:36.299Z,24.50
2018-12-10T05:52:39.538Z,24.50
2018-12-10T05:55:42.947Z,24.50
2018-12-10T05:58:40.880Z,24.60
2018-12-10T06:01:38.549Z,24.60
2018-12-10T06:04:36.517Z,24.60
2018-12-10T06:07:33.308Z,24.70
2018-12-10T06:10:31.989Z,24.70
2018-12-10T06:13:31.964Z,24.70
2018-12-10T06:16:29.952Z,24.80
2018-12-10T06:19:26.663Z,24.80
2018-12-10T06:22:25.627Z,24.80
2018-12-10T06:25:24.225Z,24.90
2018-12-10T06:28:21.158Z,24.90
2018-12-10T06:31:18.237Z,24.90
2018-12-10T06:34:18.118Z,25.00
2018-12-10T06:37:19.523Z,25.00
2018-12-10T06:40:21.911Z,25.10
2018-12-10T06:43:20.549Z,25.00
2018-12-10T06:46:24.625Z,25.10
2018-12-10T06:49:18.027Z,25.10
2018-12-10T06:52:16.045Z,25.10
2018-12-10T06:55:13.661Z,25.10
2018-12-10T06:58:12.460Z,25.10
2018-12-10T07:04:35.804Z,25.00
2018-12-10T07:07:40.281Z,25.00
2018-12-10T07:10:42.375Z,25.00
2018-12-10T07:13:42.615Z,25.00
2018-12-10T07:16:42.919Z,25.00
2018-12-10T07:19:40.082Z,25.00
2018-12-10T07:22:37.474Z,25.00
2018-12-10T07:25:34.712Z,25.00
2018-12-10T07:28:35.430Z,25.00
2018-12-10T07:31:36.169Z,25.00
2018-12-10T07:34:35.813Z,25.00
2018-12-10T07:37:32.599Z,25.00
2018-12-10T07:40:28.597Z,25.00
2018-12-10T07:43:54.072Z,25.00
2018-12-10T07:46:54.567Z,25.10
2018-12-10T07:49:55.177Z,25.10
2018-12-10T07:52:51.688Z,25.10
2018-12-10T07:55:51.351Z,25.20
2018-12-10T07:58:47.715Z,25.20
2018-12-10T08:01:44.503Z,25.20
2018-12-10T08:04:41.690Z,25.20
2018-12-10T08:07:39.105Z,25.20
2018-12-10T08:10:35.050Z,25.20
2018-12-10T08:13:43.015Z,25.20
2018-12-10T08:16:42.465Z,25.20
2018-12-10T08:19:41.620Z,25.20
2018-12-10T08:22:45.962Z,25.20
2018-12-10T08:25:42.882Z,25.20
2018-12-10T08:28:41.623Z,25.10
2018-12-10T08:31:44.549Z,25.10
2018-12-10T08:34:41.514Z,25.10
2018-12-10T08:37:36.760Z,25.10
2018-12-10T08:40:32.717Z,25.00
2018-12-10T08:43:30.095Z,25.00
2018-12-10T08:46:26.409Z,25.00
2018-12-10T08:49:22.554Z,25.00
2018-12-10T08:52:20.731Z,24.90
2018-12-10T08:55:21.895Z,24.90
2018-12-10T08:58:31.217Z,24.90
2018-12-10T09:01:27.752Z,24.80
2018-12-10T09:04:24.604Z,24.80
2018-12-10T09:07:22.166Z,24.80
2018-12-10T09:10:47.706Z,24.70
2018-12-10T09:13:48.149Z,24.70
2018-12-10T09:16:47.116Z,24.70
2018-12-10T09:19:45.862Z,24.60
2018-12-10T09:22:43.799Z,24.60
2018-12-10T09:25:42.254Z,24.60
2018-12-10T09:29:26.181Z,24.70
2018-12-10T09:32:56.312Z,24.60
2018-12-10T09:35:59.835Z,24.70
2018-12-10T09:39:09.478Z,24.70
2018-12-10T09:42:08.369Z,24.80
2018-12-10T09:45:05.424Z,24.80
2018-12-10T09:48:06.260Z,24.90
2018-12-10T09:51:49.356Z,24.90
2018-12-10T09:54:57.299Z,25.00
2018-12-10T09:57:56.222Z,25.00
2018-12-10T10:01:04.717Z,25.00
2018-12-10T10:04:00.712Z,25.10
2018-12-10T10:06:58.403Z,25.10
2018-12-10T10:09:55.136Z,25.10
2018-12-10T10:12:52.115Z,25.20
2018-12-10T10:15:48.250Z,25.20
2018-12-10T10:18:45.370Z,25.30
2018-12-10T10:25:54.655Z,25.30
2018-12-10T10:28:51.074Z,25.30
2018-12-10T10:31:47.932Z,25.30
2018-12-10T10:34:50.188Z,25.30
2018-12-10T10:37:48.730Z,25.30
2018-12-10T10:40:50.666Z,25.30
2018-12-10T10:43:48.165Z,25.30
2018-12-10T10:46:48.392Z,25.30
2018-12-10T10:49:48.866Z,25.30
2018-12-10T10:52:47.286Z,25.30
2018-12-10T10:55:46.157Z,25.30
2018-12-10T10:58:46.213Z,25.30
2018-12-10T11:02:23.899Z,25.30
2018-12-10T11:05:45.471Z,25.30
2018-12-10T11:08:48.128Z,25.30
2018-12-10T11:11:48.587Z,25.30
2018-12-10T11:14:51.873Z,25.30
2018-12-10T11:17:52.783Z,25.30
2018-12-10T11:20:49.582Z,25.30
2018-12-10T11:23:48.775Z,25.30
2018-12-10T11:26:49.833Z,25.20
2018-12-10T11:29:49.802Z,25.20
2018-12-10T11:32:43.381Z,25.20
2018-12-10T11:35:42.695Z,25.10
2018-12-10T11:38:39.938Z,25.20
2018-12-10T11:41:38.185Z,25.10
2018-12-10T11:44:43.613Z,25.10
2018-12-10T11:47:45.862Z,25.10
2018-12-10T11:50:47.201Z,25.00
2018-12-10T11:53:45.281Z,25.00
2018-12-10T11:56:44.976Z,25.00
2018-12-10T11:59:42.082Z,24.90
2018-12-10T12:02:40.314Z,24.90
2018-12-10T12:05:39.322Z,24.90
2018-12-10T12:08:37.874Z,24.90
2018-12-10T12:11:35.264Z,24.80
2018-12-10T12:14:36.342Z,24.80
2018-12-10T12:17:37.063Z,24.80
2018-12-10T12:20:34.873Z,24.80
2018-12-10T12:23:31.926Z,24.70
2018-12-10T12:26:28.556Z,24.70
2018-12-10T12:29:24.355Z,24.70
2018-12-10T12:32:20.612Z,24.70
2018-12-10T12:35:16.310Z,24.70
2018-12-10T12:38:13.573Z,24.70
2018-12-10T12:41:12.238Z,24.70
2018-12-10T12:44:08.038Z,24.60
2018-12-10T12:47:03.905Z,24.60
2018-12-10T12:50:11.368Z,24.60
2018-12-10T12:53:08.649Z,24.60
2018-12-10T12:56:04.492Z,24.60
2018-12-10T12:59:00.283Z,24.60
2018-12-10T13:01:56.232Z,24.60
2018-12-10T13:04:52.128Z,24.50
2018-12-10T13:07:48.149Z,24.50
2018-12-10T13:10:44.569Z,24.50
2018-12-10T13:13:41.341Z,24.50
2018-12-10T13:16:37.807Z,24.50
2018-12-10T13:19:36.986Z,24.50
2018-12-10T13:22:33.318Z,24.50
2018-12-10T13:25:29.651Z,24.50
2018-12-10T13:28:28.666Z,24.40
2018-12-10T13:31:21.995Z,24.40
2018-12-10T13:34:18.646Z,24.40
2018-12-10T13:37:14.912Z,24.40
2018-12-10T13:40:11.605Z,24.40
2018-12-10T13:43:07.275Z,24.40
2018-12-10T13:46:03.109Z,24.40
2018-12-10T13:48:59.607Z,24.40
2018-12-10T13:51:55.410Z,24.30
2018-12-10T13:54:51.223Z,24.30
2018-12-10T13:57:47.494Z,24.30
2018-12-10T14:00:43.753Z,24.30
2018-12-10T14:03:39.652Z,24.30
2018-12-10T14:06:35.919Z,24.30
2018-12-10T14:09:32.016Z,24.30
2018-12-10T14:12:31.087Z,24.30
2018-12-10T14:15:28.217Z,24.20
2018-12-10T14:18:24.537Z,24.20
2018-12-10T14:21:20.869Z,24.30
2018-12-10T14:24:17.061Z,24.20
2018-12-10T14:27:13.287Z,24.20
2018-12-10T14:30:13.096Z,24.20
2018-12-10T14:33:09.124Z,24.20
2018-12-10T14:36:05.031Z,24.20
2018-12-10T14:39:00.858Z,24.20
2018-12-10T14:41:58.024Z,24.20
2018-12-10T14:44:54.205Z,24.20
2018-12-10T14:47:50.422Z,24.20
2018-12-10T14:50:46.227Z,24.20
2018-12-10T14:53:42.049Z,24.20
2018-12-10T14:56:38.010Z,24.20
2018-12-10T14:59:34.460Z,24.30
2018-12-10T15:02:31.193Z,24.30
2018-12-10T15:05:27.459Z,24.30
2018-12-10T15:08:24.268Z,24.30
2018-12-10T15:11:21.033Z,24.40
2018-12-10T15:14:20.411Z,24.40
2018-12-10T15:17:14.492Z,24.40
2018-12-10T15:20:20.296Z,24.40
2018-12-10T15:23:17.364Z,24.50
2018-12-10T15:26:13.911Z,24.50
2018-12-10T15:29:10.532Z,24.50
2018-12-10T15:32:07.935Z,24.50
2018-12-10T15:35:04.931Z,24.50
2018-12-10T15:38:01.612Z,24.50
2018-12-10T15:40:59.043Z,24.50
2018-12-10T15:43:56.262Z,24.50
2018-12-10T15:47:01.641Z,24.50
2018-12-10T15:49:58.819Z,24.50
2018-12-10T15:52:57.001Z,24.50
2018-12-10T15:55:53.819Z,24.50
2018-12-10T15:58:50.524Z,24.50
2018-12-10T16:01:47.552Z,24.50
2018-12-10T16:04:43.604Z,24.50
2018-12-10T16:07:41.240Z,24.50
2018-12-10T16:10:38.238Z,24.50
2018-12-10T16:13:35.417Z,24.60
2018-12-10T16:16:32.919Z,24.60
2018-12-10T16:19:29.270Z,24.60
2018-12-10T16:22:25.615Z,24.60
2018-12-10T16:25:22.545Z,24.60
2018-12-10T16:28:19.266Z,24.60
2018-12-10T16:31:17.429Z,24.50
2018-12-10T16:34:14.892Z,24.50
2018-12-10T16:37:12.117Z,24.50
2018-12-10T16:40:08.793Z,24.50
2018-12-10T16:43:06.166Z,24.50
2018-12-10T16:46:03.524Z,24.40
2018-12-10T16:49:01.767Z,24.40
2018-12-10T16:52:03.438Z,24.40
2018-12-10T16:54:56.647Z,24.40
2018-12-10T16:57:53.634Z,24.40
2018-12-10T17:00:50.459Z,24.30
2018-12-10T17:03:47.335Z,24.30
2018-12-10T17:06:44.054Z,24.30
2018-12-10T17:09:41.662Z,24.30
2018-12-10T17:12:38.285Z,24.30
2018-12-10T17:15:35.062Z,24.30
2018-12-10T17:18:32.056Z,24.20
2018-12-10T17:21:29.108Z,24.20
2018-12-10T17:24:28.445Z,24.20
2018-12-10T17:27:24.984Z,24.20
2018-12-10T17:30:21.912Z,24.20
2018-12-10T17:33:18.596Z,24.20
2018-12-10T17:36:16.336Z,24.20
2018-12-10T17:39:16.060Z,24.10
2018-12-10T17:42:13.194Z,24.20
2018-12-10T17:45:12.470Z,24.10
2018-12-10T17:48:09.455Z,24.10
2018-12-10T17:51:06.829Z,24.10
2018-12-10T17:54:03.636Z,24.10
2018-12-10T17:57:01.448Z,24.10
2018-12-10T17:59:58.238Z,24.10
2018-12-10T18:02:54.786Z,24.10
2018-12-10T18:05:51.656Z,24.10
2018-12-10T18:08:48.072Z,24.10
2018-12-10T18:11:44.444Z,24.10
2018-12-10T18:14:40.946Z,24.00
2018-12-10T18:17:37.698Z,24.10
2018-12-10T18:20:34.464Z,24.10
2018-12-10T18:23:30.919Z,24.10
2018-12-10T18:26:27.639Z,24.00
2018-12-10T18:29:24.211Z,24.00
2018-12-10T18:32:20.750Z,24.00
2018-12-10T18:35:17.819Z,24.00
2018-12-10T18:38:15.106Z,24.00
2018-12-10T18:41:15.023Z,24.10
2018-12-10T18:44:11.899Z,24.10
2018-12-10T18:47:09.642Z,24.10
2018-12-10T18:50:06.521Z,24.00
2018-12-10T18:53:03.528Z,24.00
2018-12-10T18:55:59.734Z,24.00
2018-12-10T18:58:56.499Z,24.00
2018-12-10T19:01:52.740Z,24.00
2018-12-10T19:04:49.263Z,24.00
2018-12-10T19:07:45.636Z,23.90
2018-12-10T19:10:42.378Z,23.90
2018-12-10T19:13:39.246Z,23.90
2018-12-10T19:16:35.627Z,23.90
2018-12-10T19:19:31.643Z,23.90
2018-12-10T19:22:28.523Z,23.90
2018-12-10T19:25:24.638Z,23.80
2018-12-10T19:28:21.002Z,23.80
2018-12-10T19:31:17.127Z,23.80
2018-12-10T19:34:13.342Z,23.80
2018-12-10T19:37:12.973Z,23.80
2018-12-10T19:40:09.217Z,23.80
2018-12-10T19:43:05.830Z,23.80
2018-12-10T19:46:02.502Z,23.70
2018-12-10T19:48:59.343Z,23.70
2018-12-10T19:51:56.051Z,23.70
2018-12-10T19:54:52.961Z,23.70
2018-12-10T19:57:49.194Z,23.70
2018-12-10T20:00:45.798Z,23.70
2018-12-10T20:03:42.262Z,23.60
2018-12-10T20:06:56.976Z,23.70
2018-12-10T20:09:53.797Z,23.70
2018-12-10T20:12:50.307Z,23.70
2018-12-10T20:15:46.541Z,23.60
2018-12-10T20:18:43.113Z,23.60
2018-12-10T20:21:43.549Z,23.60
2018-12-10T20:24:36.507Z,23.60
2018-12-10T20:27:33.849Z,23.70
2018-12-10T20:30:30.320Z,23.70
2018-12-10T20:33:27.000Z,23.70
2018-12-10T20:36:23.606Z,23.70
2018-12-10T20:39:19.745Z,23.70
2018-12-10T20:42:16.267Z,23.70
2018-12-10T20:45:18.368Z,23.70
2018-12-10T20:48:14.833Z,23.70
2018-12-10T20:51:11.561Z,23.70
2018-12-10T20:54:07.871Z,23.70
2018-12-10T20:57:07.777Z,23.70
2018-12-10T21:00:04.242Z,23.70
2018-12-10T21:03:01.036Z,23.70
2018-12-10T21:06:14.179Z,23.60
2018-12-10T21:09:12.066Z,23.60
2018-12-10T21:12:08.578Z,23.60
2018-12-10T21:15:04.898Z,23.60
2018-12-10T21:18:01.114Z,23.50
2018-12-10T21:20:57.283Z,23.50
2018-12-10T21:23:54.659Z,23.50
2018-12-10T21:26:51.130Z,23.50
2018-12-10T21:29:47.945Z,23.40
2018-12-10T21:32:47.798Z,23.40
2018-12-10T21:35:47.441Z,23.40
2018-12-10T21:38:45.607Z,23.40
2018-12-10T21:41:40.913Z,23.30
2018-12-10T21:44:37.066Z,23.30
2018-12-10T21:47:34.158Z,23.30
2018-12-10T21:50:30.294Z,23.30
2018-12-10T21:53:27.116Z,23.30
2018-12-10T21:56:23.214Z,23.30
2018-12-10T21:59:20.692Z,23.30
2018-12-10T22:02:17.605Z,23.30
2018-12-10T22:05:14.002Z,23.30
2018-12-10T22:08:10.632Z,23.30
2018-12-10T22:11:07.018Z,23.20
2018-12-10T22:14:08.434Z,23.20
2018-12-10T22:17:04.837Z,23.20
2018-12-10T22:20:01.362Z,23.20
2018-12-10T22:22:57.819Z,23.20
2018-12-10T22:25:54.354Z,23.20
2018-12-10T22:28:51.006Z,23.20
2018-12-10T22:31:47.544Z,23.10
2018-12-10T22:34:43.844Z,23.10
2018-12-10T22:37:40.124Z,23.10
2018-12-10T22:40:37.088Z,23.00
2018-12-10T22:43:33.697Z,23.00
2018-12-10T22:46:30.346Z,23.00
2018-12-10T22:49:29.600Z,23.00
2018-12-10T22:52:26.188Z,23.00
2018-12-10T22:55:22.560Z,23.00
2018-12-10T22:58:18.951Z,23.00
2018-12-10T23:01:15.896Z,23.00
2018-12-10T23:04:15.002Z,22.90
2018-12-10T23:07:11.293Z,23.00
2018-12-10T23:10:07.886Z,22.90
2018-12-10T23:13:07.565Z,22.90
2018-12-10T23:16:04.007Z,22.90
2018-12-10T23:19:00.249Z,22.90
2018-12-10T23:22:02.026Z,22.90
2018-12-10T23:24:56.675Z,22.90
2018-12-10T23:27:53.427Z,22.90
2018-12-10T23:30:49.474Z,22.90
2018-12-10T23:33:45.826Z,22.90
2018-12-10T23:36:42.534Z,22.90
2018-12-10T23:39:39.455Z,22.90
2018-12-10T23:42:36.226Z,22.90
2018-12-10T23:45:32.855Z,22.90
2018-12-10T23:48:28.953Z,22.90
2018-12-10T23:51:25.294Z,23.00
2018-12-10T23:54:22.055Z,23.00
2018-12-10T23:57:18.536Z,22.90
